Terminal Aerodrome Forecast
Issued by NWS

Home | Current Version | Previous Version | Text Only | Print | Product List | Glossary On
Versions: 1 2 3 4 5 6 7 8 9 10 11 12 13 14
000
FTUS43 KIND 310530
TAFBMG
TAF
KBMG 310530Z 3106/0106 16003KT 5SM BR BKN100
     FM310800 VRB02KT 2SM BR SCT250
      TEMPO 3109/3112 1/2SM FG
     FM311430 22005KT P6SM SCT050 SCT250=

USA.gov is the U.S. government's official web portal to all federal, state and local government web resources and services.